Strona główna
METAR-TAF:

METAR-TAF

Lotnisko :

Bratysława, Słowacja

Port lotniczy Bratysława

Szerokość geograficzna: 48-12N, Długość geograficzna: 017-12E, wysokość: 133 m

Aktualna obserwacja pogody

Raport powstał 31 minut temu, godzina 21:00 UTC
Wiatr 4 kt od zachodnio-północny zachód
Temperatura -10°C
Wilgotność 61%
Ciśnienie 1023 hPa
Widzialność 10 km lub więcej
Brak chmur poniżej 1500 m i brak chmur cumulonimbus

METAR: LZIB 252100Z 30004KT CAVOK M10/M16 Q1023

czas: 22:31 (21:31 UTC)

Prognoza

Raport powstał 4 godziny i 31 minut temu, godzina 17:00 UTC
Prognoza ważna od 25 godzina 18 UTC do 26 godzina 18 UTC
Wiatr 12 kt od północ
Widzialność 10 km lub więcej
Brak chmur poniżej 1500 m i brak chmur cumulonimbus
Przejściowo
od 26 godzina 10 UTC do 26 godzina 18 UTC
Wiatr 15 kt od północ w porywach dochodzący do 25 kt
Widzialność 10 km lub więcej
Rozproszone chmury na wysokości 3500 ft

TAF: LZIB 251700Z 2518/2618 01012KT CAVOK TEMPO 2610/2618 35015G25KT 9999 SCT035

Obserwacja i prognoza pogody dla ponad 4000 lotnisk (raport METAR i TAF).

Dostępne stacje oznaczono żółtymi i czerwonymi punktami na mapie.

Najedź kursorem aby zobaczyć nazwę stacji.

Kliknij aby zobaczyć obserwacje i prognozy pogody.

Aby zmienić mapę: kliknij na zielony przycisk z czarnym krzyżykiem, aby powiększyć; na zielony przycisk z myślnikiem, aby pomniejszyć; na zielone strzałki, aby przejść do map sąsiednich.


METAR-TAF: